Time;durP1;ratioP1;P1;durP2;ratioP2;P2;SDS_P1;SDS_P2;PMS_P1;PMS_P2;Temp;Humidity;BMP_temperature;BMP_pressure;BME280_temperature;BME280_humidity;BME280_pressure;Samples;Min_cycle;Max_cycle;Signal;HPM_P1;HPM_P2
2021/08/12 00:00:12;;;;;;;;;;;16.70;99.90;;;;;;5055864;28;19916;-80
2021/08/12 00:02:37;;;;;;;;;;;16.70;99.90;;;;;;5056584;28;19909;-81
2021/08/12 00:05:07;;;;;;;;;;;16.50;99.90;;;;;;5055390;28;19955;-81
2021/08/12 00:07:33;;;;;;;;;;;16.30;99.90;;;;;;5056000;28;19915;-81
2021/08/12 00:10:00;;;;;;;;;;;16.30;99.90;;;;;;5055587;28;19936;-81
2021/08/12 00:12:26;;;;;;;;;;;16.30;99.90;;;;;;5055820;28;20263;-81
2021/08/12 00:14:51;;;;;;;;;;;16.30;99.90;;;;;;5055666;28;19942;-81
2021/08/12 00:17:17;;;;;;;;;;;16.20;99.90;;;;;;5059626;28;19912;-79
2021/08/12 00:19:42;;;;;;;;;;;16.10;99.90;;;;;;5060406;28;20232;-80
2021/08/12 00:22:08;;;;;;;;;;;16.10;99.90;;;;;;5059414;28;19905;-81
2021/08/12 00:24:33;;;;;;;;;;;16.00;99.90;;;;;;5060371;28;19911;-81
2021/08/12 00:27:02;;;;;;;;;;;15.90;99.90;;;;;;5059669;28;19909;-81
2021/08/12 00:29:28;;;;;;;;;;;15.90;99.90;;;;;;5059233;28;19931;-80
2021/08/12 00:31:53;;;;;;;;;;;16.00;99.90;;;;;;5060168;28;19909;-80
2021/08/12 00:34:19;;;;;;;;;;;16.00;99.90;;;;;;5058042;28;19911;-79
2021/08/12 00:36:44;;;;;;;;;;;16.00;99.90;;;;;;5054872;28;19908;-81
2021/08/12 00:39:10;;;;;;;;;;;15.90;99.90;;;;;;5055860;28;19908;-81
2021/08/12 00:41:38;;;;;;;;;;;15.80;99.90;;;;;;5056496;28;20420;-81
2021/08/12 00:44:03;;;;;;;;;;;15.90;99.90;;;;;;5054587;28;19912;-80
2021/08/12 00:46:29;;;;;;;;;;;16.00;99.90;;;;;;5051671;28;19904;-80
2021/08/12 00:48:55;;;;;;;;;;;15.90;99.90;;;;;;5052557;28;20243;-81
2021/08/12 00:51:20;;;;;;;;;;;15.90;99.90;;;;;;5053589;28;19911;-80
2021/08/12 00:53:46;;;;;;;;;;;16.00;99.90;;;;;;5052597;28;19912;-80
2021/08/12 00:56:11;;;;;;;;;;;16.10;99.90;;;;;;5052750;28;19912;-81
2021/08/12 00:58:37;;;;;;;;;;;16.10;99.90;;;;;;5052439;28;19916;-81
2021/08/12 01:01:02;;;;;;;;;;;15.90;99.90;;;;;;5053944;28;19999;-81
2021/08/12 01:03:28;;;;;;;;;;;15.70;99.90;;;;;;5052464;28;19951;-81
2021/08/12 01:05:54;;;;;;;;;;;15.70;99.90;;;;;;5052801;28;20281;-81
2021/08/12 01:08:39;;;;;;;;;;;15.70;99.90;;;;;;5053256;28;19905;-81
2021/08/12 01:11:15;;;;;;;;;;;15.50;99.90;;;;;;5055451;28;19912;-79
2021/08/12 01:13:55;;;;;;;;;;;15.40;99.90;;;;;;5055361;28;19915;-80
2021/08/12 01:16:24;;;;;;;;;;;15.40;99.90;;;;;;5057354;28;20369;-81
2021/08/12 01:19:01;;;;;;;;;;;15.50;99.90;;;;;;5056817;28;20223;-81
2021/08/12 01:21:46;;;;;;;;;;;15.60;99.90;;;;;;5056231;28;19931;-81
2021/08/12 01:24:13;;;;;;;;;;;15.50;99.90;;;;;;5056484;28;19911;-81
2021/08/12 01:26:41;;;;;;;;;;;15.40;99.90;;;;;;5055275;28;20000;-81
2021/08/12 01:29:08;;;;;;;;;;;15.30;99.90;;;;;;5057295;28;19905;-81
2021/08/12 01:31:54;;;;;;;;;;;15.30;99.90;;;;;;5055968;28;19909;-81
2021/08/12 01:34:22;;;;;;;;;;;15.30;99.90;;;;;;5057620;28;19904;-80
2021/08/12 01:36:48;;;;;;;;;;;15.30;99.90;;;;;;5055725;28;19936;-81
2021/08/12 01:39:14;;;;;;;;;;;15.30;99.90;;;;;;5055536;28;19983;-81
2021/08/12 01:41:41;;;;;;;;;;;15.40;99.90;;;;;;5057299;28;19936;-81
2021/08/12 01:44:07;;;;;;;;;;;15.50;99.90;;;;;;5056931;28;19970;-80
2021/08/12 01:46:34;;;;;;;;;;;15.40;99.90;;;;;;5056219;28;19909;-81
2021/08/12 01:49:01;;;;;;;;;;;15.50;99.90;;;;;;5057731;28;19904;-80
2021/08/12 01:51:27;;;;;;;;;;;15.40;99.90;;;;;;5055604;28;20003;-80
2021/08/12 01:53:54;;;;;;;;;;;15.60;99.90;;;;;;5056828;28;19912;-81
2021/08/12 01:56:20;;;;;;;;;;;15.50;99.90;;;;;;5056204;28;19905;-81
2021/08/12 01:58:46;;;;;;;;;;;15.50;99.90;;;;;;5059719;28;19932;-81
2021/08/12 02:01:12;;;;;;;;;;;15.70;99.90;;;;;;5059528;28;20289;-81
2021/08/12 02:03:38;;;;;;;;;;;15.70;99.90;;;;;;5058591;28;19932;-80
2021/08/12 02:06:04;;;;;;;;;;;15.60;99.90;;;;;;5059968;28;19912;-80
2021/08/12 02:08:30;;;;;;;;;;;15.50;99.90;;;;;;5058547;28;19968;-81
2021/08/12 02:10:56;;;;;;;;;;;15.40;99.90;;;;;;5057445;28;19919;-81
2021/08/12 02:13:24;;;;;;;;;;;15.30;99.90;;;;;;5057795;28;20242;-80
2021/08/12 02:15:50;;;;;;;;;;;15.40;99.90;;;;;;5059298;28;19919;-80
2021/08/12 02:18:15;;;;;;;;;;;15.50;99.90;;;;;;5058370;28;20328;-81
2021/08/12 02:20:41;;;;;;;;;;;15.60;99.90;;;;;;5058741;28;19908;-81
2021/08/12 02:23:15;;;;;;;;;;;15.50;99.90;;;;;;5058994;28;19911;-81
2021/08/12 02:26:01;;;;;;;;;;;15.40;99.90;;;;;;5057911;28;19908;-80
2021/08/12 02:28:28;;;;;;;;;;;15.50;99.90;;;;;;5056354;28;19904;-80
2021/08/12 02:30:54;;;;;;;;;;;15.50;99.90;;;;;;5056558;28;19905;-81
2021/08/12 02:33:23;;;;;;;;;;;15.50;99.90;;;;;;5056879;28;19911;-81
2021/08/12 02:35:49;;;;;;;;;;;15.40;99.90;;;;;;5057092;28;19905;-80
2021/08/12 02:38:16;;;;;;;;;;;15.40;99.90;;;;;;5056580;28;19916;-80
2021/08/12 02:40:43;;;;;;;;;;;15.50;99.90;;;;;;5056652;28;19909;-80
2021/08/12 02:43:09;;;;;;;;;;;15.50;99.90;;;;;;5056837;28;19960;-80
2021/08/12 02:45:35;;;;;;;;;;;15.60;99.90;;;;;;5057396;28;19947;-80
2021/08/12 02:48:02;;;;;;;;;;;15.70;99.90;;;;;;5057343;28;19904;-81
2021/08/12 02:50:28;;;;;;;;;;;15.60;99.90;;;;;;5058366;28;19927;-81
2021/08/12 02:52:54;;;;;;;;;;;15.50;99.90;;;;;;5058542;28;19905;-80
2021/08/12 02:55:21;;;;;;;;;;;15.50;99.90;;;;;;5056992;28;19932;-80
2021/08/12 02:57:47;;;;;;;;;;;15.50;99.90;;;;;;5056765;28;19912;-80
2021/08/12 03:00:13;;;;;;;;;;;15.50;99.90;;;;;;5057831;28;20055;-81
2021/08/12 03:02:39;;;;;;;;;;;15.50;99.90;;;;;;5057294;28;19987;-81
2021/08/12 03:05:05;;;;;;;;;;;15.50;99.90;;;;;;5059022;28;19905;-81
2021/08/12 03:07:31;;;;;;;;;;;15.40;99.90;;;;;;5057557;28;19916;-81
2021/08/12 03:09:58;;;;;;;;;;;15.50;99.90;;;;;;5055976;28;20346;-81
2021/08/12 03:12:24;;;;;;;;;;;15.60;99.90;;;;;;5056631;28;19911;-81
2021/08/12 03:14:50;;;;;;;;;;;15.60;99.90;;;;;;5056424;28;19913;-81
2021/08/12 03:17:16;;;;;;;;;;;15.50;99.90;;;;;;5056157;28;19936;-81
2021/08/12 03:19:44;;;;;;;;;;;15.60;99.90;;;;;;5056479;28;20270;-81
2021/08/12 03:22:11;;;;;;;;;;;15.60;99.90;;;;;;5055936;28;20336;-81
2021/08/12 03:24:37;;;;;;;;;;;15.60;99.90;;;;;;5055809;28;19943;-81
2021/08/12 03:27:04;;;;;;;;;;;15.50;99.90;;;;;;5057222;28;19905;-81
2021/08/12 03:29:29;;;;;;;;;;;15.40;99.90;;;;;;5057668;28;20309;-81
2021/08/12 03:31:55;;;;;;;;;;;15.40;99.90;;;;;;5056617;28;19911;-81
2021/08/12 03:34:20;;;;;;;;;;;15.50;99.90;;;;;;5059211;28;20505;-80
2021/08/12 03:36:46;;;;;;;;;;;15.60;99.90;;;;;;5057226;28;20316;-80
2021/08/12 03:39:11;;;;;;;;;;;15.60;99.90;;;;;;5057067;28;19920;-80
2021/08/12 03:41:37;;;;;;;;;;;15.70;99.90;;;;;;5058344;28;20272;-80
2021/08/12 03:44:03;;;;;;;;;;;15.60;99.90;;;;;;5041291;28;19909;-81
2021/08/12 03:46:28;;;;;;;;;;;15.50;99.90;;;;;;5059493;28;20460;-81
2021/08/12 03:48:54;;;;;;;;;;;15.70;99.90;;;;;;5057640;28;19971;-80
2021/08/12 03:51:19;;;;;;;;;;;15.80;99.90;;;;;;5057961;28;19987;-80
2021/08/12 03:53:45;;;;;;;;;;;15.60;99.90;;;;;;5054352;28;19905;-80
2021/08/12 03:56:10;;;;;;;;;;;15.60;99.90;;;;;;5054563;28;20274;-80
2021/08/12 03:58:37;;;;;;;;;;;15.50;99.90;;;;;;5054285;28;19909;-80
2021/08/12 04:01:03;;;;;;;;;;;15.50;99.90;;;;;;5056116;28;19908;-80
2021/08/12 04:03:29;;;;;;;;;;;15.50;99.90;;;;;;5054238;28;19928;-80
2021/08/12 04:05:54;;;;;;;;;;;15.60;99.90;;;;;;5054526;28;19936;-80
2021/08/12 04:08:20;;;;;;;;;;;15.60;99.90;;;;;;5053781;28;20299;-80
2021/08/12 04:10:45;;;;;;;;;;;15.40;99.90;;;;;;5054275;28;19908;-81
2021/08/12 04:13:11;;;;;;;;;;;15.40;99.90;;;;;;5054207;28;19955;-81
2021/08/12 04:15:36;;;;;;;;;;;15.40;99.90;;;;;;5053887;28;19920;-80
2021/08/12 04:18:02;;;;;;;;;;;15.50;99.90;;;;;;5054083;28;19920;-80
2021/08/12 04:20:27;;;;;;;;;;;15.60;99.90;;;;;;5055226;28;19990;-80
2021/08/12 04:22:53;;;;;;;;;;;15.70;99.90;;;;;;5054296;28;19904;-81
2021/08/12 04:25:18;;;;;;;;;;;15.60;99.90;;;;;;5054206;28;19908;-81
2021/08/12 04:27:44;;;;;;;;;;;15.50;99.90;;;;;;5054592;28;19905;-81
2021/08/12 04:30:10;;;;;;;;;;;15.40;99.90;;;;;;5054666;28;19912;-81
2021/08/12 04:32:36;;;;;;;;;;;15.40;99.90;;;;;;5054871;28;19904;-81
2021/08/12 04:35:02;;;;;;;;;;;15.40;99.90;;;;;;5054271;28;19908;-81
2021/08/12 04:37:35;;;;;;;;;;;15.40;99.90;;;;;;5055944;28;19905;-81
2021/08/12 04:40:01;;;;;;;;;;;15.30;99.90;;;;;;5054662;28;19961;-81
2021/08/12 04:42:26;;;;;;;;;;;15.30;99.90;;;;;;5054569;28;19904;-81
2021/08/12 04:44:52;;;;;;;;;;;15.30;99.90;;;;;;5055953;28;19909;-81
2021/08/12 04:47:17;;;;;;;;;;;15.30;99.90;;;;;;5056158;28;19905;-81
2021/08/12 04:49:43;;;;;;;;;;;15.30;99.90;;;;;;5055031;28;20011;-81
2021/08/12 04:52:09;;;;;;;;;;;15.50;99.90;;;;;;5058235;28;19905;-80
2021/08/12 04:54:35;;;;;;;;;;;15.70;99.90;;;;;;5055440;28;19908;-81
2021/08/12 04:57:00;;;;;;;;;;;15.70;99.90;;;;;;5056076;28;20016;-81
2021/08/12 04:59:26;;;;;;;;;;;15.60;99.90;;;;;;5055431;28;19916;-80
2021/08/12 05:01:54;;;;;;;;;;;15.50;99.90;;;;;;5053921;28;19943;-79
2021/08/12 05:04:20;;;;;;;;;;;15.30;99.90;;;;;;5053646;28;19911;-79
2021/08/12 05:06:45;;;;;;;;;;;15.30;99.90;;;;;;5055385;28;20373;-80
2021/08/12 05:09:11;;;;;;;;;;;15.50;99.90;;;;;;5055507;28;19905;-80
2021/08/12 05:11:36;;;;;;;;;;;15.60;99.90;;;;;;5055436;28;19915;-80
2021/08/12 05:14:02;;;;;;;;;;;15.60;99.90;;;;;;5056390;28;19909;-80
2021/08/12 05:16:27;;;;;;;;;;;15.70;99.90;;;;;;5054887;28;19909;-80
2021/08/12 05:18:53;;;;;;;;;;;15.90;99.90;;;;;;5055248;28;19913;-80
2021/08/12 05:21:18;;;;;;;;;;;15.90;99.90;;;;;;5056872;28;19905;-80
2021/08/12 05:23:44;;;;;;;;;;;15.80;99.90;;;;;;5056474;28;20250;-80
2021/08/12 05:26:10;;;;;;;;;;;15.90;99.90;;;;;;5055565;28;20310;-80
2021/08/12 05:28:35;;;;;;;;;;;15.90;99.90;;;;;;5055387;28;19912;-80
2021/08/12 05:31:04;;;;;;;;;;;15.90;99.90;;;;;;5055531;28;19911;-80
2021/08/12 05:33:29;;;;;;;;;;;15.80;99.90;;;;;;5058863;28;19970;-79
2021/08/12 05:35:55;;;;;;;;;;;15.90;99.90;;;;;;5059572;28;20330;-80
2021/08/12 05:38:20;;;;;;;;;;;16.00;99.90;;;;;;5059111;28;19917;-80
2021/08/12 05:40:46;;;;;;;;;;;16.00;99.90;;;;;;5059625;28;20364;-80
2021/08/12 05:43:11;;;;;;;;;;;16.00;99.90;;;;;;5061882;28;19916;-80
2021/08/12 05:45:37;;;;;;;;;;;15.90;99.90;;;;;;5061491;28;19909;-81
2021/08/12 05:48:02;;;;;;;;;;;15.90;99.90;;;;;;5059702;28;20394;-81
2021/08/12 05:50:28;;;;;;;;;;;15.80;99.90;;;;;;5059779;28;20070;-81
2021/08/12 05:52:53;;;;;;;;;;;15.80;99.90;;;;;;5059038;28;20373;-82
2021/08/12 05:55:19;;;;;;;;;;;15.80;99.90;;;;;;5059364;28;19904;-81
2021/08/12 05:57:44;;;;;;;;;;;15.90;99.90;;;;;;5059663;28;19938;-81
2021/08/12 06:00:10;;;;;;;;;;;16.00;99.90;;;;;;5058131;28;19951;-81
2021/08/12 06:02:36;;;;;;;;;;;16.20;99.90;;;;;;5058166;28;20000;-80
2021/08/12 06:05:01;;;;;;;;;;;16.40;99.90;;;;;;5058103;28;19904;-80
2021/08/12 06:07:27;;;;;;;;;;;16.60;99.90;;;;;;5058512;28;20269;-80
2021/08/12 06:09:52;;;;;;;;;;;16.70;99.90;;;;;;5059212;28;20349;-80
2021/08/12 06:12:18;;;;;;;;;;;16.70;99.90;;;;;;5058139;28;19912;-79
2021/08/12 06:14:43;;;;;;;;;;;16.80;99.90;;;;;;5058488;28;20421;-79
2021/08/12 06:17:09;;;;;;;;;;;16.80;99.90;;;;;;5059649;28;19963;-80
2021/08/12 06:19:34;;;;;;;;;;;16.90;99.90;;;;;;5058231;28;19919;-79
2021/08/12 06:22:00;;;;;;;;;;;16.90;99.90;;;;;;5056640;28;19911;-79
2021/08/12 06:24:25;;;;;;;;;;;16.90;99.90;;;;;;5058754;28;19916;-82
2021/08/12 06:26:51;;;;;;;;;;;16.70;99.90;;;;;;5058283;28;19905;-82
2021/08/12 06:29:17;;;;;;;;;;;16.60;99.90;;;;;;5057436;28;19909;-82
2021/08/12 06:31:42;;;;;;;;;;;16.70;99.90;;;;;;5058977;28;19908;-82
2021/08/12 06:34:08;;;;;;;;;;;16.80;99.90;;;;;;5057526;28;19908;-81
2021/08/12 06:36:33;;;;;;;;;;;16.80;99.90;;;;;;5056994;28;19959;-81
2021/08/12 06:38:59;;;;;;;;;;;17.10;99.90;;;;;;5058331;28;19908;-81
2021/08/12 06:41:26;;;;;;;;;;;17.30;99.90;;;;;;5058785;28;19913;-81
2021/08/12 06:43:51;;;;;;;;;;;17.50;99.90;;;;;;5057648;28;19905;-81
2021/08/12 06:46:17;;;;;;;;;;;17.60;99.90;;;;;;5057801;28;19963;-81
2021/08/12 06:48:42;;;;;;;;;;;17.80;99.90;;;;;;5058580;28;19912;-80
2021/08/12 06:51:08;;;;;;;;;;;18.00;99.90;;;;;;5057923;28;19937;-81
2021/08/12 06:53:33;;;;;;;;;;;18.10;99.90;;;;;;5059711;28;19905;-81
2021/08/12 06:55:59;;;;;;;;;;;17.90;99.90;;;;;;5057542;28;19904;-80
2021/08/12 06:58:24;;;;;;;;;;;18.10;99.90;;;;;;5056532;28;19984;-80
2021/08/12 07:00:50;;;;;;;;;;;18.20;99.90;;;;;;5057076;28;19905;-80
2021/08/12 07:03:15;;;;;;;;;;;18.10;99.90;;;;;;5055465;28;19935;-80
2021/08/12 07:05:41;;;;;;;;;;;18.20;99.90;;;;;;5054331;28;19958;-80
2021/08/12 07:08:08;;;;;;;;;;;18.30;99.90;;;;;;5054284;28;20243;-80
2021/08/12 07:10:34;;;;;;;;;;;18.40;99.90;;;;;;5055001;28;19909;-79
2021/08/12 07:12:59;;;;;;;;;;;18.70;99.90;;;;;;5055834;28;19908;-79
2021/08/12 07:15:25;;;;;;;;;;;18.70;99.90;;;;;;5055625;28;19954;-79
2021/08/12 07:17:50;;;;;;;;;;;18.60;99.90;;;;;;5055020;28;19939;-80
2021/08/12 07:20:16;;;;;;;;;;;18.80;99.90;;;;;;5056453;28;19940;-80
2021/08/12 07:22:41;;;;;;;;;;;19.10;99.90;;;;;;5055626;28;20370;-80
2021/08/12 07:25:07;;;;;;;;;;;19.30;99.90;;;;;;5055418;28;20010;-79
2021/08/12 07:27:32;;;;;;;;;;;19.90;99.90;;;;;;5057371;28;19909;-79
2021/08/12 07:29:58;;;;;;;;;;;20.70;99.90;;;;;;5056371;28;19958;-79
2021/08/12 07:32:23;;;;;;;;;;;21.50;99.90;;;;;;5055370;28;20392;-79
2021/08/12 07:34:49;;;;;;;;;;;22.20;99.90;;;;;;5055240;28;20396;-78
2021/08/12 07:37:14;;;;;;;;;;;22.50;99.90;;;;;;5055643;28;20288;-79
2021/08/12 07:39:40;;;;;;;;;;;23.30;99.90;;;;;;5054919;28;19938;-79
2021/08/12 07:42:06;;;;;;;;;;;24.00;99.90;;;;;;5056093;28;19931;-79
2021/08/12 07:44:31;;;;;;;;;;;24.90;99.90;;;;;;5056907;28;20308;-79
2021/08/12 07:46:57;;;;;;;;;;;25.70;99.90;;;;;;5057578;28;19912;-79
2021/08/12 07:49:22;;;;;;;;;;;26.10;99.90;;;;;;5057464;28;19909;-79
2021/08/12 07:51:48;;;;;;;;;;;26.70;99.90;;;;;;5056250;28;19912;-79
2021/08/12 07:54:13;;;;;;;;;;;27.20;99.90;;;;;;5056914;28;19905;-79
2021/08/12 07:56:39;;;;;;;;;;;27.00;99.90;;;;;;5056538;28;19992;-79
2021/08/12 07:59:04;;;;;;;;;;;27.10;99.90;;;;;;5054158;28;19912;-79
2021/08/12 08:01:30;;;;;;;;;;;26.70;99.90;;;;;;5055423;28;20358;-79
2021/08/12 08:03:59;;;;;;;;;;;26.70;99.90;;;;;;5055019;28;19921;-79
2021/08/12 08:06:25;;;;;;;;;;;26.60;99.90;;;;;;5055844;28;20310;-79
2021/08/12 08:08:50;;;;;;;;;;;26.40;99.90;;;;;;5057282;28;19943;-80
2021/08/12 08:11:17;;;;;;;;;;;26.20;99.90;;;;;;5058465;28;19904;-80
2021/08/12 08:13:43;;;;;;;;;;;26.40;99.90;;;;;;5056487;28;20420;-80
2021/08/12 08:16:08;;;;;;;;;;;27.00;99.90;;;;;;5058353;28;19963;-80
2021/08/12 08:18:34;;;;;;;;;;;27.80;99.90;;;;;;5055918;28;19920;-80
2021/08/12 08:20:59;;;;;;;;;;;27.60;99.90;;;;;;5057203;28;19905;-79
2021/08/12 08:23:25;;;;;;;;;;;27.10;99.90;;;;;;5055711;28;20346;-79
2021/08/12 08:25:50;;;;;;;;;;;26.20;99.90;;;;;;5057001;28;19912;-79
2021/08/12 08:28:16;;;;;;;;;;;25.00;99.90;;;;;;5057436;28;19905;-79
2021/08/12 08:30:41;;;;;;;;;;;24.10;99.90;;;;;;5056886;28;19955;-79
2021/08/12 08:33:07;;;;;;;;;;;24.00;99.90;;;;;;5055819;28;19909;-79
2021/08/12 08:35:34;;;;;;;;;;;24.20;99.90;;;;;;5057032;28;19926;-78
2021/08/12 08:38:00;;;;;;;;;;;23.40;99.90;;;;;;5055426;28;20000;-79
2021/08/12 08:40:26;;;;;;;;;;;22.50;99.90;;;;;;5055506;28;19928;-79
2021/08/12 08:42:51;;;;;;;;;;;21.90;99.90;;;;;;5054544;28;19904;-79
2021/08/12 08:45:21;;;;;;;;;;;21.80;99.90;;;;;;5056463;28;19915;-80
2021/08/12 08:47:48;;;;;;;;;;;21.40;99.90;;;;;;5055073;28;19916;-80
2021/08/12 08:50:17;;;;;;;;;;;21.10;99.90;;;;;;5054499;28;19936;-80
2021/08/12 08:52:42;;;;;;;;;;;21.30;99.90;;;;;;5055330;28;19909;-79
2021/08/12 08:55:08;;;;;;;;;;;21.20;99.90;;;;;;5056469;28;19908;-80
2021/08/12 08:57:34;;;;;;;;;;;20.80;99.90;;;;;;5054978;28;19908;-80
2021/08/12 09:00:00;;;;;;;;;;;20.70;99.90;;;;;;5056639;28;19908;-80
2021/08/12 09:02:26;;;;;;;;;;;20.60;99.90;;;;;;5057279;28;19918;-80
2021/08/12 09:04:52;;;;;;;;;;;20.80;99.90;;;;;;5055009;28;19999;-80
2021/08/12 09:07:17;;;;;;;;;;;21.00;99.90;;;;;;5053814;28;19916;-80
2021/08/12 09:09:43;;;;;;;;;;;21.10;99.90;;;;;;5056761;28;19908;-79
2021/08/12 09:12:08;;;;;;;;;;;21.20;99.90;;;;;;5055515;28;19908;-79
2021/08/12 09:14:34;;;;;;;;;;;21.00;99.90;;;;;;5057454;28;19916;-81
2021/08/12 09:17:00;;;;;;;;;;;21.40;99.90;;;;;;5055973;28;19967;-81
2021/08/12 09:19:25;;;;;;;;;;;21.70;99.90;;;;;;5055820;28;20380;-80
2021/08/12 09:21:52;;;;;;;;;;;22.00;99.90;;;;;;5054797;28;19991;-79
2021/08/12 09:24:18;;;;;;;;;;;22.30;99.90;;;;;;5054385;28;20307;-79
2021/08/12 09:26:43;;;;;;;;;;;22.60;99.90;;;;;;5057368;28;19915;-80
2021/08/12 09:29:09;;;;;;;;;;;23.10;99.90;;;;;;5057709;28;19911;-80
2021/08/12 09:31:35;;;;;;;;;;;23.60;99.90;;;;;;5055213;28;20467;-81
2021/08/12 09:34:11;;;;;;;;;;;23.00;99.90;;;;;;5057365;28;19923;-80
2021/08/12 09:36:38;;;;;;;;;;;22.60;99.90;;;;;;5055869;28;19908;-79
2021/08/12 09:39:22;;;;;;;;;;;22.40;99.90;;;;;;5058088;28;19909;-80
2021/08/12 09:41:52;;;;;;;;;;;22.20;99.90;;;;;;5059281;28;19905;-81
2021/08/12 09:44:36;;;;;;;;;;;22.00;99.90;;;;;;5057938;28;20316;-81
2021/08/12 09:47:03;;;;;;;;;;;22.10;99.90;;;;;;5055179;28;19948;-79
2021/08/12 09:49:37;;;;;;;;;;;21.90;99.90;;;;;;5054712;28;19916;-80
2021/08/12 09:52:19;;;;;;;;;;;22.10;99.90;;;;;;5055309;28;19916;-80
2021/08/12 09:54:45;;;;;;;;;;;22.30;99.90;;;;;;5053944;28;20316;-80
2021/08/12 09:57:14;;;;;;;;;;;22.30;99.90;;;;;;5054796;28;19908;-80
2021/08/12 09:59:47;;;;;;;;;;;22.30;99.90;;;;;;5054484;28;20012;-80
2021/08/12 10:02:13;;;;;;;;;;;22.50;99.90;;;;;;5054080;28;19920;-80
2021/08/12 10:04:38;;;;;;;;;;;22.70;99.90;;;;;;5053770;28;20461;-80
2021/08/12 10:07:04;;;;;;;;;;;22.80;99.90;;;;;;5054472;28;19912;-80
2021/08/12 10:09:38;;;;;;;;;;;23.30;99.90;;;;;;5055169;28;19915;-81
2021/08/12 10:12:04;;;;;;;;;;;23.60;99.90;;;;;;5051556;28;19913;-78
2021/08/12 10:14:29;;;;;;;;;;;24.80;99.90;;;;;;5052101;28;19916;-78
2021/08/12 10:16:55;;;;;;;;;;;24.90;99.90;;;;;;5052293;28;19916;-80
2021/08/12 10:19:21;;;;;;;;;;;24.60;99.90;;;;;;5056501;28;20007;-80
2021/08/12 10:21:47;;;;;;;;;;;25.30;99.90;;;;;;5058656;28;19951;-80
2021/08/12 10:24:13;;;;;;;;;;;25.90;99.90;;;;;;5060533;28;19951;-81
2021/08/12 10:26:38;;;;;;;;;;;26.40;99.90;;;;;;5059324;28;19999;-81
2021/08/12 10:29:10;;;;;;;;;;;25.90;99.90;;;;;;5059258;28;19952;-79
2021/08/12 10:31:35;;;;;;;;;;;25.40;99.90;;;;;;5059595;28;19911;-80
2021/08/12 10:34:03;;;;;;;;;;;25.20;99.90;;;;;;5060203;28;19999;-80
2021/08/12 10:36:29;;;;;;;;;;;25.80;99.90;;;;;;5059201;28;19905;-80
2021/08/12 10:38:55;;;;;;;;;;;25.80;99.90;;;;;;5058353;28;19915;-81
2021/08/12 10:41:21;;;;;;;;;;;26.40;99.90;;;;;;5059652;28;19959;-80
2021/08/12 10:43:51;;;;;;;;;;;27.50;99.90;;;;;;5059750;28;19928;-81
2021/08/12 10:46:30;;;;;;;;;;;27.60;99.90;;;;;;5061033;28;19912;-81
2021/08/12 10:49:15;;;;;;;;;;;27.20;99.90;;;;;;5059638;28;20392;-80
2021/08/12 10:51:46;;;;;;;;;;;27.00;99.90;;;;;;5060449;28;19931;-81
2021/08/12 10:54:16;;;;;;;;;;;26.70;99.90;;;;;;5059507;28;19909;-81
2021/08/12 10:56:42;;;;;;;;;;;26.20;99.90;;;;;;5059279;28;19916;-80
2021/08/12 10:59:08;;;;;;;;;;;26.00;99.90;;;;;;5060175;28;20243;-81
2021/08/12 11:01:35;;;;;;;;;;;25.80;99.90;;;;;;5059684;28;19919;-80
2021/08/12 11:04:02;;;;;;;;;;;25.40;99.90;;;;;;5061141;28;19904;-80
2021/08/12 11:06:38;;;;;;;;;;;25.00;99.90;;;;;;5059650;28;19959;-80
2021/08/12 11:09:06;;;;;;;;;;;25.40;99.90;;;;;;5057192;28;19915;-81
2021/08/12 11:11:31;;;;;;;;;;;25.30;99.90;;;;;;5059786;28;19897;-81
2021/08/12 11:14:00;;;;;;;;;;;25.30;99.90;;;;;;5059889;28;19912;-81
2021/08/12 11:16:27;;;;;;;;;;;25.80;99.90;;;;;;5057449;28;19913;-81
2021/08/12 11:18:54;;;;;;;;;;;26.30;99.90;;;;;;5056964;28;19920;-80
2021/08/12 11:21:31;;;;;;;;;;;27.30;99.90;;;;;;5057966;28;19909;-80
2021/08/12 11:24:05;;;;;;;;;;;27.80;99.90;;;;;;5057869;28;19909;-80
2021/08/12 11:26:40;;;;;;;;;;;28.50;99.20;;;;;;5059237;28;20292;-80
2021/08/12 11:29:06;;;;;;;;;;;29.40;98.00;;;;;;5056792;28;19909;-81
2021/08/12 11:31:31;;;;;;;;;;;29.60;96.80;;;;;;5055961;28;19905;-81
2021/08/12 11:34:01;;;;;;;;;;;28.70;97.40;;;;;;5056075;28;19905;-78
2021/08/12 11:36:29;;;;;;;;;;;27.90;98.80;;;;;;5053642;28;19957;-78
2021/08/12 11:39:00;;;;;;;;;;;27.70;99.30;;;;;;5053780;28;19962;-78
2021/08/12 11:41:26;;;;;;;;;;;28.20;99.00;;;;;;5053822;28;19905;-78
2021/08/12 11:43:52;;;;;;;;;;;28.90;97.70;;;;;;5059559;28;19905;-81
2021/08/12 11:46:18;;;;;;;;;;;28.60;97.60;;;;;;5058104;28;20043;-80
2021/08/12 11:48:44;;;;;;;;;;;28.00;98.40;;;;;;5056446;28;19905;-81
2021/08/12 11:51:10;;;;;;;;;;;28.00;98.80;;;;;;5058285;28;19904;-80
2021/08/12 11:53:36;;;;;;;;;;;27.70;99.10;;;;;;5056690;28;19904;-81
2021/08/12 11:56:13;;;;;;;;;;;27.70;99.00;;;;;;5055807;28;20363;-80
2021/08/12 11:58:41;;;;;;;;;;;28.10;98.80;;;;;;5056042;28;19908;-80
2021/08/12 12:01:11;;;;;;;;;;;29.50;97.00;;;;;;5055606;28;19905;-80
2021/08/12 12:03:36;;;;;;;;;;;28.60;97.40;;;;;;5056438;28;19905;-80
2021/08/12 12:06:02;;;;;;;;;;;28.90;97.10;;;;;;5055919;28;20254;-80
2021/08/12 12:08:28;;;;;;;;;;;29.00;96.90;;;;;;5055366;28;20342;-80
2021/08/12 12:10:53;;;;;;;;;;;28.80;97.10;;;;;;5055700;28;19916;-81
2021/08/12 12:13:20;;;;;;;;;;;29.00;96.60;;;;;;5055962;28;19912;-80
2021/08/12 12:15:52;;;;;;;;;;;28.60;96.90;;;;;;5055766;28;20534;-81
2021/08/12 12:18:45;;;;;;;;;;;27.90;97.20;;;;;;5056004;28;19923;-81
2021/08/12 12:21:11;;;;;;;;;;;27.10;98.50;;;;;;5056874;28;19905;-81
2021/08/12 12:23:38;;;;;;;;;;;26.90;99.00;;;;;;5056467;28;20322;-81
2021/08/12 12:26:05;;;;;;;;;;;26.80;99.80;;;;;;5054723;28;20263;-81
2021/08/12 12:28:30;;;;;;;;;;;27.60;99.10;;;;;;5054532;28;20365;-80
2021/08/12 12:30:56;;;;;;;;;;;28.40;99.20;;;;;;5054821;28;20000;-81
2021/08/12 12:33:24;;;;;;;;;;;29.20;97.90;;;;;;5056013;28;19905;-80
2021/08/12 12:35:51;;;;;;;;;;;29.80;96.20;;;;;;5056880;28;19909;-80
2021/08/12 12:38:19;;;;;;;;;;;30.80;95.30;;;;;;5054218;28;19962;-80
2021/08/12 12:40:45;;;;;;;;;;;31.10;95.20;;;;;;5055100;28;19911;-80
2021/08/12 12:43:11;;;;;;;;;;;31.40;93.90;;;;;;5055572;28;19905;-80
2021/08/12 12:45:44;;;;;;;;;;;31.10;94.50;;;;;;5055256;28;19947;-81
2021/08/12 12:48:10;;;;;;;;;;;30.40;94.60;;;;;;5054581;28;19905;-81
2021/08/12 12:50:41;;;;;;;;;;;30.90;94.10;;;;;;5054888;28;20352;-81
2021/08/12 12:53:07;;;;;;;;;;;30.70;93.40;;;;;;5055685;28;19905;-80
2021/08/12 12:55:37;;;;;;;;;;;30.70;94.50;;;;;;5055440;28;19911;-80
2021/08/12 12:58:16;;;;;;;;;;;31.10;93.60;;;;;;5054157;28;19954;-80
2021/08/12 13:00:41;;;;;;;;;;;30.70;94.60;;;;;;5054709;28;19911;-81
2021/08/12 13:03:07;;;;;;;;;;;31.70;93.20;;;;;;5055400;28;19905;-80
2021/08/12 13:05:49;;;;;;;;;;;31.20;92.60;;;;;;5055018;28;19909;-80
2021/08/12 13:08:14;;;;;;;;;;;30.40;93.70;;;;;;5055332;28;19912;-80
2021/08/12 13:10:40;;;;;;;;;;;29.50;95.00;;;;;;5055023;28;19905;-80
2021/08/12 13:13:05;;;;;;;;;;;28.80;94.70;;;;;;5055551;28;19908;-80
2021/08/12 13:15:31;;;;;;;;;;;27.80;96.40;;;;;;5053661;28;19923;-81
2021/08/12 13:17:56;;;;;;;;;;;27.70;97.10;;;;;;5054137;28;19959;-80
2021/08/12 13:20:22;;;;;;;;;;;27.70;98.10;;;;;;5053804;28;19912;-80
2021/08/12 13:22:49;;;;;;;;;;;27.40;97.50;;;;;;5053573;28;19909;-80
2021/08/12 13:25:16;;;;;;;;;;;27.20;98.10;;;;;;5053583;28;20380;-80
2021/08/12 13:27:46;;;;;;;;;;;27.30;98.50;;;;;;5053391;28;19905;-80
2021/08/12 13:30:12;;;;;;;;;;;27.00;99.10;;;;;;5053823;28;19911;-80
2021/08/12 13:32:37;;;;;;;;;;;27.00;99.30;;;;;;5052917;28;19960;-80
2021/08/12 13:35:03;;;;;;;;;;;26.50;99.70;;;;;;5055445;28;19913;-81
2021/08/12 13:37:28;;;;;;;;;;;26.30;99.90;;;;;;5054761;28;19940;-81
2021/08/12 13:39:54;;;;;;;;;;;26.20;99.90;;;;;;5053812;28;19916;-81
2021/08/12 13:42:20;;;;;;;;;;;26.70;99.90;;;;;;5055272;28;20467;-81
2021/08/12 13:44:46;;;;;;;;;;;27.80;99.60;;;;;;5055168;28;19904;-81
2021/08/12 13:47:12;;;;;;;;;;;29.40;96.70;;;;;;5056307;28;20380;-81
2021/08/12 13:49:37;;;;;;;;;;;30.10;95.10;;;;;;5057469;28;19905;-80
2021/08/12 13:52:06;;;;;;;;;;;30.30;94.50;;;;;;5055834;28;19940;-80
2021/08/12 13:54:34;;;;;;;;;;;30.30;94.30;;;;;;5059356;28;19942;-80
2021/08/12 13:57:00;;;;;;;;;;;30.40;93.80;;;;;;5058958;28;19905;-80
2021/08/12 13:59:25;;;;;;;;;;;30.40;93.80;;;;;;5059207;28;19962;-80
2021/08/12 14:01:52;;;;;;;;;;;30.40;93.90;;;;;;5060652;28;19905;-80
2021/08/12 14:04:18;;;;;;;;;;;30.60;93.10;;;;;;5060146;28;19920;-80
2021/08/12 14:06:43;;;;;;;;;;;30.40;93.30;;;;;;5060450;28;20273;-81
2021/08/12 14:09:09;;;;;;;;;;;30.20;93.80;;;;;;5060762;28;19893;-80
2021/08/12 14:11:34;;;;;;;;;;;30.30;93.70;;;;;;5059886;28;20242;-80
2021/08/12 14:14:01;;;;;;;;;;;29.30;94.50;;;;;;5058858;28;19931;-80